Terminal Aerodrome Forecast
Issued by NWS

Home | Current Version | Previous Version | Text Only | Print | Product List | Glossary Off
Versions: 1 2 3 4 5 6 7 8 9 10 11 12 13 14 15 16 17 18 19 20 21 22

000
FTUS43 KPAH 191739
TAFCGI
TAF
KCGI 191739Z 1918/2018 11005KT 3SM -SHRA OVC004
     FM191900 12004KT 3SM BR VCSH OVC006
     FM200100 12001KT 1 1/2SM BR OVC003
     FM200400 00000KT 1 1/2SM -SHRA BR OVC003
     FM201400 18005KT 4SM -SHRA BR BKN009=

USA.gov is the U.S. government's official web portal to all federal, state and local government web resources and services.